Waldo, KS (67673)

2:57 PM CDT on April 27, 2015 (GMT -0500)
Waldo | | Change Station
CLOSE
Current Station
Personal Weather Station
Location: Waldo, KS
Elevation: 1708 ft
Nearby Weather Stations

Elev 1708 ft 39.12 °N, 98.80 °W | Updated 11 minutes ago

Partly Cloudy
Partly Cloudy
60.7 °F
Feels Like 60.7 °F
N
13.0
Wind Variable Wind from North
Gusts 25.0 mph

Today
High -- | Low -- °F
--% Chance of Precip.
Yesterday
High -- | Low -- °F
Precip. -- in
6:42 AM 8:23 PM
Waxing Gibbous, 67% visible
Pressure 30.09 in
Visibility 10.0 miles
Clouds Clear
Dew Point 40 °F
Humidity 46%
Rainfall 0.00 in
Snow Depth Not available.
UV 11 out of 12
Pollen 10.40 out of 12
Air Quality Not available.
Flu Activity Sporadic
METAR KRSL 271853Z AUTO 04022G29KT 10SM CLR 14/02 A3009

More Conditions Fewer Conditions

Pressure 30.09 in
Visibility 10.0 miles
Clouds Clear
Dew Point 40 °F
Humidity 46%
Rainfall 0.00 in
Snow Depth Not available.
UV 11 out of 12
Pollen 10.40 out of 12
Air Quality Not available.
Flu Activity Sporadic
METAR KRSL 271853Z AUTO 04022G29KT 10SM CLR 14/02 A3009

More Conditions Fewer Conditions

10-Day Weather Forecast

Almanac

Astronomy

Apr. 27, 2015 Rise Set
Actual Time
Civil Twilight
Nautical Twilight
Astronomical Twilight
Moon
Length of Visible Light
Length of Day
Tomorrow will be .
, % of the Moon is Illuminated

Today's Extremes

State Highs State Lows

Community

WunderPhotos

Upload Photos

1,817,414 photos uploaded!

WunderBlogs® & News

Nearby

Air Quality

  Air Quality AQ Index Pollutant
Not available.

Snow Depth

Station Depth Elevation

Earthquake Activity

City Distance Mag. Time & Date
Minimum magnitude displayed is 2.5.

Coastal Water Temperatures

Place Temperature

Stations

Nearby Weather Stations

Station Location Temp. Windchill Dew Point Humidity Wind Precip. Elev Updated Type